Time;durP1;ratioP1;P1;durP2;ratioP2;P2;SDS_P1;SDS_P2;PMS_P1;PMS_P2;Temp;Humidity;BMP_temperature;BMP_pressure;BME280_temperature;BME280_humidity;BME280_pressure;Samples;Min_cycle;Max_cycle;Signal;HPM_P1;HPM_P2
2022/09/01 00:02:19;;;;;;;;;;;14.50;99.90;;;;;;5115907;27;20382;-54
2022/09/01 00:05:01;;;;;;;;;;;14.50;99.90;;;;;;5126716;27;19912;-55
2022/09/01 00:07:41;;;;;;;;;;;14.40;99.90;;;;;;5105649;27;19946;-54
2022/09/01 00:10:21;;;;;;;;;;;14.40;99.90;;;;;;5126614;27;19911;-54
2022/09/01 00:13:03;;;;;;;;;;;14.40;99.90;;;;;;5086009;28;19912;-54
2022/09/01 00:15:43;;;;;;;;;;;14.30;99.90;;;;;;5126694;27;20347;-54
2022/09/01 00:18:22;;;;;;;;;;;14.30;99.90;;;;;;5106211;27;19934;-54
2022/09/01 00:21:02;;;;;;;;;;;14.20;99.90;;;;;;5105535;27;19926;-54
2022/09/01 00:23:42;;;;;;;;;;;14.10;99.90;;;;;;5126423;27;19911;-54
2022/09/01 00:26:22;;;;;;;;;;;14.20;99.90;;;;;;5085723;28;20271;-55
2022/09/01 00:29:03;;;;;;;;;;;14.20;99.90;;;;;;5105917;27;19912;-55
2022/09/01 00:31:43;;;;;;;;;;;14.10;99.90;;;;;;5106653;27;20242;-54
2022/09/01 00:34:23;;;;;;;;;;;14.10;99.90;;;;;;5085935;28;19912;-54
2022/09/01 00:37:03;;;;;;;;;;;14.00;99.90;;;;;;5085975;28;19916;-54
2022/09/01 00:39:42;;;;;;;;;;;14.00;99.90;;;;;;5125836;27;20393;-54
2022/09/01 00:42:23;;;;;;;;;;;13.90;99.90;;;;;;5074371;28;19913;-55
2022/09/01 00:45:04;;;;;;;;;;;13.90;99.90;;;;;;5085692;28;20386;-55
2022/09/01 00:47:44;;;;;;;;;;;13.80;99.90;;;;;;5106008;27;19927;-54
2022/09/01 00:50:24;;;;;;;;;;;13.70;99.90;;;;;;5126213;27;19912;-54
2022/09/01 00:53:06;;;;;;;;;;;13.70;99.90;;;;;;5161585;27;19910;-54
2022/09/01 00:55:46;;;;;;;;;;;13.60;99.90;;;;;;5126349;27;19912;-54
2022/09/01 00:58:26;;;;;;;;;;;13.60;99.90;;;;;;5106009;27;19920;-54
2022/09/01 01:01:07;;;;;;;;;;;13.60;99.90;;;;;;5126853;27;20172;-54
2022/09/01 01:03:47;;;;;;;;;;;13.70;99.90;;;;;;5106134;27;19926;-54
2022/09/01 01:06:31;;;;;;;;;;;13.60;99.90;;;;;;5106165;27;19926;-54
2022/09/01 01:09:12;;;;;;;;;;;13.70;99.90;;;;;;5105986;27;19916;-54
2022/09/01 01:11:52;;;;;;;;;;;13.70;99.90;;;;;;5120350;27;19916;-54
2022/09/01 01:14:35;;;;;;;;;;;13.70;99.90;;;;;;5085755;28;19944;-55
2022/09/01 01:17:16;;;;;;;;;;;13.70;99.90;;;;;;5126685;27;19912;-54
2022/09/01 01:23:04;;;;;;;;;;;13.70;99.90;;;;;;5126723;27;20412;-54
2022/09/01 01:25:47;;;;;;;;;;;13.70;99.90;;;;;;5126184;27;19912;-55
2022/09/01 01:28:30;;;;;;;;;;;13.70;99.90;;;;;;5126823;27;19912;-55
2022/09/01 01:31:12;;;;;;;;;;;13.60;99.90;;;;;;5125007;27;19912;-54
2022/09/01 01:33:53;;;;;;;;;;;13.60;99.90;;;;;;5146934;27;19911;-54
2022/09/01 01:36:34;;;;;;;;;;;13.60;99.90;;;;;;5106049;27;19945;-54
2022/09/01 01:39:18;;;;;;;;;;;13.60;99.90;;;;;;5126452;27;19912;-55
2022/09/01 01:41:58;;;;;;;;;;;13.60;99.90;;;;;;5155130;27;20141;-55
2022/09/01 01:44:38;;;;;;;;;;;13.60;99.90;;;;;;5105729;27;20184;-55
2022/09/01 01:47:20;;;;;;;;;;;13.60;99.90;;;;;;5126084;27;19912;-55
2022/09/01 01:50:01;;;;;;;;;;;13.50;99.90;;;;;;5125391;27;19912;-55
2022/09/01 01:52:42;;;;;;;;;;;13.50;99.90;;;;;;5085955;27;19920;-55
2022/09/01 01:55:26;;;;;;;;;;;13.40;99.90;;;;;;5105313;27;19926;-55
2022/09/01 01:58:06;;;;;;;;;;;13.20;99.90;;;;;;5126279;27;19912;-54
2022/09/01 02:00:49;;;;;;;;;;;13.10;99.90;;;;;;5125764;27;20372;-55
2022/09/01 02:03:37;;;;;;;;;;;13.00;99.90;;;;;;5097349;27;20286;-55
2022/09/01 02:06:23;;;;;;;;;;;12.90;99.90;;;;;;5126293;27;19916;-55
2022/09/01 02:09:03;;;;;;;;;;;12.80;99.90;;;;;;5125824;27;19912;-54
2022/09/01 02:11:45;;;;;;;;;;;12.80;99.90;;;;;;5125867;27;19918;-54
2022/09/01 02:14:26;;;;;;;;;;;12.70;99.90;;;;;;5126047;27;19920;-55
2022/09/01 02:17:07;;;;;;;;;;;12.60;99.90;;;;;;5126864;27;19912;-54
2022/09/01 02:19:48;;;;;;;;;;;12.40;99.90;;;;;;5125835;27;19912;-54
2022/09/01 02:22:28;;;;;;;;;;;12.10;99.90;;;;;;5113628;27;19912;-54
2022/09/01 02:25:09;;;;;;;;;;;11.90;99.90;;;;;;5105961;27;19926;-55
2022/09/01 02:27:54;;;;;;;;;;;11.90;99.90;;;;;;5125522;27;19916;-54
2022/09/01 02:30:36;;;;;;;;;;;11.80;99.90;;;;;;5105223;27;19918;-55
2022/09/01 02:33:17;;;;;;;;;;;11.60;99.90;;;;;;5125957;27;19915;-55
2022/09/01 02:36:00;;;;;;;;;;;11.50;99.90;;;;;;5105664;27;19956;-54
2022/09/01 02:38:41;;;;;;;;;;;11.40;99.90;;;;;;5126215;27;20426;-54
2022/09/01 02:41:23;;;;;;;;;;;11.30;99.90;;;;;;5126119;27;19929;-54
2022/09/01 02:44:10;;;;;;;;;;;11.30;99.90;;;;;;5126799;27;19915;-54
2022/09/01 02:46:52;;;;;;;;;;;11.20;99.90;;;;;;5147210;27;20427;-54
2022/09/01 02:49:37;;;;;;;;;;;11.10;99.90;;;;;;5105129;27;19912;-55
2022/09/01 02:52:19;;;;;;;;;;;11.00;99.90;;;;;;5115443;27;20342;-55
2022/09/01 02:54:59;;;;;;;;;;;10.90;99.90;;;;;;5126067;27;19926;-55
2022/09/01 02:57:39;;;;;;;;;;;10.90;99.90;;;;;;5125725;27;20116;-54
2022/09/01 03:00:27;;;;;;;;;;;10.80;99.90;;;;;;5105404;27;19920;-54
2022/09/01 03:03:08;;;;;;;;;;;10.70;99.90;;;;;;5125987;27;19911;-55
2022/09/01 03:05:55;;;;;;;;;;;10.70;99.90;;;;;;5125934;27;19912;-54
2022/09/01 03:08:38;;;;;;;;;;;10.60;99.90;;;;;;5105680;27;19912;-55
2022/09/01 03:11:18;;;;;;;;;;;10.60;99.90;;;;;;5106290;27;19954;-54
2022/09/01 03:13:59;;;;;;;;;;;10.50;99.90;;;;;;5126747;27;19916;-54
2022/09/01 03:16:41;;;;;;;;;;;10.50;99.90;;;;;;5126399;27;19918;-54
2022/09/01 03:19:21;;;;;;;;;;;10.40;99.90;;;;;;5105503;27;20320;-55
2022/09/01 03:22:01;;;;;;;;;;;10.40;99.90;;;;;;5105307;27;20427;-54
2022/09/01 03:24:44;;;;;;;;;;;10.30;99.90;;;;;;5148864;27;20429;-54
2022/09/01 03:27:24;;;;;;;;;;;10.30;99.90;;;;;;5125811;27;19916;-55
2022/09/01 03:30:04;;;;;;;;;;;10.30;99.90;;;;;;5125892;27;19912;-54
2022/09/01 03:32:46;;;;;;;;;;;10.20;99.90;;;;;;5111463;27;19946;-54
2022/09/01 03:35:28;;;;;;;;;;;10.10;99.90;;;;;;5125471;27;19919;-54
2022/09/01 03:38:08;;;;;;;;;;;10.10;99.90;;;;;;5126606;27;20320;-54
2022/09/01 03:40:48;;;;;;;;;;;10.10;99.90;;;;;;5105516;27;20230;-54
2022/09/01 03:43:30;;;;;;;;;;;10.00;99.90;;;;;;5167575;27;19911;-54
2022/09/01 03:46:15;;;;;;;;;;;10.00;99.90;;;;;;5126738;27;19925;-54
2022/09/01 03:48:57;;;;;;;;;;;9.90;99.90;;;;;;5126711;27;19915;-55
2022/09/01 03:51:37;;;;;;;;;;;9.80;99.90;;;;;;5125862;27;19912;-55
2022/09/01 03:54:18;;;;;;;;;;;9.70;99.90;;;;;;5124825;27;19912;-55
2022/09/01 03:56:59;;;;;;;;;;;9.70;99.90;;;;;;5126483;27;19912;-55
2022/09/01 03:59:44;;;;;;;;;;;9.60;99.90;;;;;;5126584;27;19920;-54
2022/09/01 04:02:24;;;;;;;;;;;9.60;99.90;;;;;;5073720;28;19916;-55
2022/09/01 04:05:05;;;;;;;;;;;9.60;99.90;;;;;;5106512;27;19912;-54
2022/09/01 04:07:45;;;;;;;;;;;9.60;99.90;;;;;;5126941;27;19919;-54
2022/09/01 04:10:25;;;;;;;;;;;9.60;99.90;;;;;;5106687;27;19969;-54
2022/09/01 04:13:06;;;;;;;;;;;9.40;99.90;;;;;;5126395;27;19953;-54
2022/09/01 04:15:46;;;;;;;;;;;9.30;99.90;;;;;;5126985;27;19915;-54
2022/09/01 04:18:26;;;;;;;;;;;9.40;99.90;;;;;;5099484;27;19958;-55
2022/09/01 04:21:06;;;;;;;;;;;9.30;99.90;;;;;;5123314;27;19945;-54
2022/09/01 04:23:47;;;;;;;;;;;9.30;99.90;;;;;;5124815;27;19919;-54
2022/09/01 04:26:30;;;;;;;;;;;9.30;99.90;;;;;;5125607;27;19925;-54
2022/09/01 04:29:11;;;;;;;;;;;9.30;99.90;;;;;;5125783;27;19911;-55
2022/09/01 04:31:52;;;;;;;;;;;9.20;99.90;;;;;;5119143;27;20386;-54
2022/09/01 04:34:36;;;;;;;;;;;9.20;99.90;;;;;;5106233;27;19926;-55
2022/09/01 04:37:19;;;;;;;;;;;9.30;99.90;;;;;;5106686;27;19926;-54
2022/09/01 04:40:03;;;;;;;;;;;9.30;99.90;;;;;;5126686;27;19912;-55
2022/09/01 04:42:44;;;;;;;;;;;9.30;99.90;;;;;;5112685;27;19912;-55
2022/09/01 04:45:26;;;;;;;;;;;9.40;99.90;;;;;;5127021;27;20327;-55
2022/09/01 04:48:07;;;;;;;;;;;9.60;99.90;;;;;;5126051;27;19911;-55
2022/09/01 04:50:48;;;;;;;;;;;9.60;99.90;;;;;;5125342;27;19920;-55
2022/09/01 04:53:47;;;;;;;;;;;9.60;99.90;;;;;;5125586;27;19917;-55
2022/09/01 04:56:29;;;;;;;;;;;9.70;99.90;;;;;;5123574;27;19911;-55
2022/09/01 04:59:25;;;;;;;;;;;9.80;99.90;;;;;;5124659;27;19911;-55
2022/09/01 05:02:11;;;;;;;;;;;9.80;99.90;;;;;;5125027;27;19911;-55
2022/09/01 05:04:52;;;;;;;;;;;9.90;99.90;;;;;;5125348;27;20472;-56
2022/09/01 05:07:36;;;;;;;;;;;10.00;99.90;;;;;;5124838;27;19916;-55
2022/09/01 05:10:17;;;;;;;;;;;10.10;99.90;;;;;;5125184;27;20115;-55
2022/09/01 05:13:18;;;;;;;;;;;10.20;99.90;;;;;;5124693;27;19912;-55
2022/09/01 05:16:04;;;;;;;;;;;10.30;99.90;;;;;;5125007;27;20405;-55
2022/09/01 05:18:46;;;;;;;;;;;10.40;99.90;;;;;;5124608;27;19915;-55
2022/09/01 05:21:28;;;;;;;;;;;10.50;99.90;;;;;;5124845;27;19912;-55
2022/09/01 05:24:09;;;;;;;;;;;10.60;99.90;;;;;;5125752;27;19919;-55
2022/09/01 05:26:49;;;;;;;;;;;10.70;99.90;;;;;;5104769;27;19926;-55
2022/09/01 05:29:30;;;;;;;;;;;10.70;99.90;;;;;;5105230;27;20309;-55
2022/09/01 05:32:11;;;;;;;;;;;10.80;99.90;;;;;;5119381;27;19916;-56
2022/09/01 05:34:52;;;;;;;;;;;10.80;99.90;;;;;;5126163;27;19912;-55
2022/09/01 05:37:32;;;;;;;;;;;10.90;99.90;;;;;;5105487;27;20426;-55
2022/09/01 05:40:14;;;;;;;;;;;11.00;99.90;;;;;;5140876;27;19916;-55
2022/09/01 05:42:57;;;;;;;;;;;11.10;99.90;;;;;;5089856;27;19920;-55
2022/09/01 05:45:39;;;;;;;;;;;11.20;99.90;;;;;;5105575;27;20381;-55
2022/09/01 05:48:22;;;;;;;;;;;11.30;99.90;;;;;;5125669;27;19915;-55
2022/09/01 05:51:05;;;;;;;;;;;11.40;99.90;;;;;;5116601;27;19922;-55
2022/09/01 05:53:50;;;;;;;;;;;11.40;99.90;;;;;;5100287;27;19920;-55
2022/09/01 05:56:31;;;;;;;;;;;11.50;99.90;;;;;;5100395;27;19950;-55
2022/09/01 05:59:11;;;;;;;;;;;11.60;99.90;;;;;;5119193;27;19922;-55
2022/09/01 06:01:51;;;;;;;;;;;11.70;99.90;;;;;;5139102;27;19921;-55
2022/09/01 06:04:33;;;;;;;;;;;11.80;99.90;;;;;;5107650;27;19923;-55
2022/09/01 06:07:18;;;;;;;;;;;11.90;99.90;;;;;;5102160;27;19973;-55
2022/09/01 06:10:03;;;;;;;;;;;12.00;99.90;;;;;;5124802;27;20385;-55
2022/09/01 06:12:44;;;;;;;;;;;12.10;99.90;;;;;;5111440;27;19974;-55
2022/09/01 06:15:25;;;;;;;;;;;12.20;99.90;;;;;;5126228;27;19916;-55
2022/09/01 06:18:07;;;;;;;;;;;12.40;99.90;;;;;;5104086;27;19919;-55
2022/09/01 06:20:54;;;;;;;;;;;12.60;99.90;;;;;;5109010;27;19916;-55
2022/09/01 06:23:35;;;;;;;;;;;12.80;99.90;;;;;;5124802;27;20335;-55
2022/09/01 06:26:22;;;;;;;;;;;13.00;99.90;;;;;;5148593;27;19915;-55
2022/09/01 06:29:05;;;;;;;;;;;13.20;99.90;;;;;;5112976;27;19912;-55
2022/09/01 06:31:50;;;;;;;;;;;13.50;99.90;;;;;;5080268;28;19924;-55
2022/09/01 06:34:34;;;;;;;;;;;13.70;99.90;;;;;;5126604;27;19918;-54
2022/09/01 06:37:16;;;;;;;;;;;14.00;99.90;;;;;;5126543;27;19912;-54
2022/09/01 06:39:58;;;;;;;;;;;14.20;99.90;;;;;;5125853;27;19916;-55
2022/09/01 06:42:40;;;;;;;;;;;14.40;99.90;;;;;;5123147;27;19916;-54
2022/09/01 06:45:22;;;;;;;;;;;14.60;99.90;;;;;;5126467;27;19945;-55
2022/09/01 06:48:04;;;;;;;;;;;14.70;99.90;;;;;;5102190;27;19931;-54
2022/09/01 06:50:46;;;;;;;;;;;14.90;99.90;;;;;;5126417;27;19926;-54
2022/09/01 06:53:25;;;;;;;;;;;15.00;99.90;;;;;;5099757;27;19957;-54
2022/09/01 06:56:05;;;;;;;;;;;15.20;99.90;;;;;;5118137;27;19922;-55
2022/09/01 06:58:47;;;;;;;;;;;15.40;99.90;;;;;;5125867;27;19925;-54
2022/09/01 07:01:29;;;;;;;;;;;15.60;99.90;;;;;;5102488;27;20320;-54
2022/09/01 07:04:10;;;;;;;;;;;15.80;99.90;;;;;;5106350;27;19920;-54
2022/09/01 07:06:54;;;;;;;;;;;16.00;99.90;;;;;;5123213;27;19926;-55
2022/09/01 07:10:01;;;;;;;;;;;16.10;99.90;;;;;;5103086;27;19916;-54
2022/09/01 07:12:49;;;;;;;;;;;16.30;99.90;;;;;;5109286;27;19915;-54
2022/09/01 07:15:31;;;;;;;;;;;16.50;99.90;;;;;;5105742;27;20315;-55
2022/09/01 07:18:13;;;;;;;;;;;16.60;99.90;;;;;;5124407;27;19920;-55
2022/09/01 07:20:54;;;;;;;;;;;16.70;99.90;;;;;;5133872;27;20256;-54
2022/09/01 07:23:37;;;;;;;;;;;16.80;99.90;;;;;;5112752;27;19926;-54
2022/09/01 07:26:20;;;;;;;;;;;16.90;99.90;;;;;;5125738;27;19918;-55
2022/09/01 07:29:02;;;;;;;;;;;17.00;99.90;;;;;;5124628;27;20399;-55
2022/09/01 07:31:44;;;;;;;;;;;17.10;99.90;;;;;;5100021;27;19916;-55
2022/09/01 07:34:26;;;;;;;;;;;17.20;99.90;;;;;;5127149;27;20319;-55
2022/09/01 07:37:07;;;;;;;;;;;17.20;99.90;;;;;;5106101;27;19930;-55
2022/09/01 07:39:49;;;;;;;;;;;17.30;99.90;;;;;;5101492;27;19919;-55
2022/09/01 07:42:39;;;;;;;;;;;17.40;99.90;;;;;;5088371;27;20356;-55
2022/09/01 07:45:42;;;;;;;;;;;17.50;99.90;;;;;;5105381;27;19912;-54
2022/09/01 07:48:24;;;;;;;;;;;17.50;99.90;;;;;;5120769;27;19924;-55
2022/09/01 07:51:04;;;;;;;;;;;17.70;99.90;;;;;;5066986;28;19919;-55
2022/09/01 07:53:47;;;;;;;;;;;17.80;99.90;;;;;;5125482;27;19920;-55
2022/09/01 07:56:30;;;;;;;;;;;18.00;99.90;;;;;;5126859;27;19922;-55
2022/09/01 07:59:13;;;;;;;;;;;18.20;99.90;;;;;;5091950;27;19931;-55
2022/09/01 08:02:03;;;;;;;;;;;18.50;99.90;;;;;;5153748;27;20213;-55
2022/09/01 08:04:42;;;;;;;;;;;18.60;99.90;;;;;;5126676;27;19911;-55
2022/09/01 08:07:22;;;;;;;;;;;18.70;99.90;;;;;;5127013;27;19942;-55
2022/09/01 08:10:02;;;;;;;;;;;19.00;99.90;;;;;;5126850;27;19923;-55
2022/09/01 08:12:45;;;;;;;;;;;19.20;99.90;;;;;;5067845;28;19917;-55
2022/09/01 08:15:27;;;;;;;;;;;19.40;99.90;;;;;;5126407;27;19924;-55
2022/09/01 08:18:08;;;;;;;;;;;19.60;99.90;;;;;;5126724;27;19916;-55
2022/09/01 08:20:48;;;;;;;;;;;19.70;99.90;;;;;;5105820;27;19912;-55
2022/09/01 08:23:48;;;;;;;;;;;19.90;99.90;;;;;;5105818;27;19946;-55
2022/09/01 08:26:30;;;;;;;;;;;20.20;99.90;;;;;;5121748;27;20312;-55
2022/09/01 08:29:10;;;;;;;;;;;20.70;99.90;;;;;;5125591;27;19922;-55
2022/09/01 08:31:54;;;;;;;;;;;20.90;99.90;;;;;;5126465;27;19911;-55
2022/09/01 08:34:36;;;;;;;;;;;20.90;99.90;;;;;;5106473;27;19916;-55
2022/09/01 08:37:15;;;;;;;;;;;20.80;99.90;;;;;;5127392;27;19911;-54
2022/09/01 08:39:55;;;;;;;;;;;20.70;99.90;;;;;;5106575;27;19949;-55
2022/09/01 08:42:42;;;;;;;;;;;20.50;99.90;;;;;;5126023;27;19916;-55
2022/09/01 08:45:24;;;;;;;;;;;20.80;99.90;;;;;;5124361;27;19912;-55
2022/09/01 08:48:10;;;;;;;;;;;21.50;99.90;;;;;;5125083;27;19916;-55
2022/09/01 08:50:53;;;;;;;;;;;22.10;99.90;;;;;;5139294;27;20385;-55
2022/09/01 08:53:47;;;;;;;;;;;22.50;99.90;;;;;;5105130;27;19957;-55
2022/09/01 08:56:28;;;;;;;;;;;22.50;95.90;;;;;;5124418;27;20292;-55
2022/09/01 08:59:10;;;;;;;;;;;22.40;99.00;;;;;;5079142;28;19916;-55
2022/09/01 09:02:31;;;;;;;;;;;22.50;93.30;;;;;;5114582;27;20381;-55
2022/09/01 09:05:20;;;;;;;;;;;22.60;95.90;;;;;;5127193;27;19912;-55
2022/09/01 09:08:09;;;;;;;;;;;22.60;88.50;;;;;;5127023;27;19912;-55
2022/09/01 09:10:51;;;;;;;;;;;22.10;85.90;;;;;;5126370;27;19920;-55
2022/09/01 09:13:36;;;;;;;;;;;21.80;89.50;;;;;;5126600;27;20277;-55
2022/09/01 09:16:17;;;;;;;;;;;21.60;93.60;;;;;;5123238;27;19916;-54
2022/09/01 09:18:58;;;;;;;;;;;21.90;92.00;;;;;;5122630;27;19919;-55
2022/09/01 09:21:39;;;;;;;;;;;21.90;89.60;;;;;;5121685;27;19916;-55
2022/09/01 09:24:23;;;;;;;;;;;21.70;91.30;;;;;;5102506;27;19916;-55
2022/09/01 09:27:04;;;;;;;;;;;21.40;88.90;;;;;;5123367;27;20274;-55
2022/09/01 09:29:45;;;;;;;;;;;21.70;86.20;;;;;;5125602;27;19912;-55
2022/09/01 09:32:43;;;;;;;;;;;21.90;82.90;;;;;;5117925;27;19922;-55
2022/09/01 09:35:25;;;;;;;;;;;22.20;79.00;;;;;;5120117;27;20397;-55
2022/09/01 09:38:29;;;;;;;;;;;23.10;76.90;;;;;;5105313;27;20312;-55
2022/09/01 09:41:14;;;;;;;;;;;23.90;68.60;;;;;;5125699;27;19916;-55
2022/09/01 09:43:57;;;;;;;;;;;24.00;60.40;;;;;;5105119;27;19926;-54
2022/09/01 09:46:39;;;;;;;;;;;23.70;59.60;;;;;;5105222;27;20267;-55
2022/09/01 09:49:22;;;;;;;;;;;23.80;58.00;;;;;;5105380;27;19945;-55
2022/09/01 09:52:14;;;;;;;;;;;24.00;59.00;;;;;;5121335;27;19915;-55
2022/09/01 09:55:02;;;;;;;;;;;23.80;57.80;;;;;;5105429;27;19920;-54
2022/09/01 09:57:42;;;;;;;;;;;23.90;55.20;;;;;;5121225;27;19920;-54
2022/09/01 10:00:24;;;;;;;;;;;24.40;55.40;;;;;;5120677;27;19916;-54
2022/09/01 10:03:05;;;;;;;;;;;24.60;52.00;;;;;;5089996;27;19938;-55
2022/09/01 10:05:47;;;;;;;;;;;24.90;52.80;;;;;;5085079;28;20370;-55
2022/09/01 10:08:43;;;;;;;;;;;25.00;49.60;;;;;;5125982;27;19916;-55
2022/09/01 10:11:29;;;;;;;;;;;24.80;46.40;;;;;;5124231;27;19923;-55
2022/09/01 10:14:10;;;;;;;;;;;24.50;48.10;;;;;;5124745;27;19916;-55
2022/09/01 10:16:53;;;;;;;;;;;24.20;49.50;;;;;;5125606;27;19916;-55
2022/09/01 10:19:34;;;;;;;;;;;23.90;49.90;;;;;;5119851;27;19915;-55
2022/09/01 10:22:15;;;;;;;;;;;24.00;50.10;;;;;;5120612;27;19913;-55
2022/09/01 10:24:54;;;;;;;;;;;23.80;50.50;;;;;;5105476;27;19930;-55
2022/09/01 10:27:36;;;;;;;;;;;24.30;50.50;;;;;;5106586;27;20015;-55
2022/09/01 10:30:17;;;;;;;;;;;24.90;48.20;;;;;;5106272;27;19912;-55
2022/09/01 10:32:59;;;;;;;;;;;24.90;45.70;;;;;;5126241;27;19911;-55
2022/09/01 10:35:41;;;;;;;;;;;24.60;45.30;;;;;;5127066;27;19911;-55
2022/09/01 10:38:23;;;;;;;;;;;24.50;46.80;;;;;;5120198;27;19915;-55
2022/09/01 10:41:08;;;;;;;;;;;24.20;48.20;;;;;;5122907;27;19916;-55
2022/09/01 10:43:48;;;;;;;;;;;24.20;47.70;;;;;;5137344;27;19923;-55
2022/09/01 10:46:43;;;;;;;;;;;24.40;49.70;;;;;;5122134;27;19919;-55
2022/09/01 10:49:49;;;;;;;;;;;24.80;48.50;;;;;;5125991;27;19912;-55
2022/09/01 10:52:46;;;;;;;;;;;24.70;47.60;;;;;;5086951;27;19931;-55
2022/09/01 10:55:28;;;;;;;;;;;24.90;47.90;;;;;;5089670;27;19966;-55
2022/09/01 10:58:27;;;;;;;;;;;25.10;47.20;;;;;;5105562;27;19957;-55
2022/09/01 11:01:07;;;;;;;;;;;25.10;46.00;;;;;;5125330;27;19912;-55
2022/09/01 11:03:53;;;;;;;;;;;24.80;45.90;;;;;;5126358;27;20397;-55
2022/09/01 11:06:44;;;;;;;;;;;25.00;45.60;;;;;;5106156;27;19916;-55
2022/09/01 11:09:26;;;;;;;;;;;25.20;44.80;;;;;;5102675;27;19916;-55
2022/09/01 11:12:25;;;;;;;;;;;25.20;45.40;;;;;;5122024;27;19919;-55
2022/09/01 11:15:26;;;;;;;;;;;25.00;44.20;;;;;;5105784;27;19918;-54
2022/09/01 11:18:11;;;;;;;;;;;24.90;44.40;;;;;;5126442;27;19912;-55
2022/09/01 11:20:51;;;;;;;;;;;24.60;44.40;;;;;;5141262;27;19915;-55
2022/09/01 11:23:31;;;;;;;;;;;24.20;44.90;;;;;;5120562;27;20352;-55
2022/09/01 11:26:24;;;;;;;;;;;24.10;44.70;;;;;;5125633;27;19937;-55
2022/09/01 11:29:05;;;;;;;;;;;24.50;44.80;;;;;;5125955;27;19916;-56
2022/09/01 11:31:45;;;;;;;;;;;24.60;44.80;;;;;;5124255;27;19919;-55
2022/09/01 11:34:24;;;;;;;;;;;24.70;43.60;;;;;;5126171;27;19918;-55
2022/09/01 11:37:12;;;;;;;;;;;24.30;43.00;;;;;;5119999;27;19920;-55
2022/09/01 11:39:54;;;;;;;;;;;24.10;45.30;;;;;;5141546;27;20381;-55
2022/09/01 11:42:39;;;;;;;;;;;24.00;46.70;;;;;;5085893;27;19950;-55
2022/09/01 11:45:19;;;;;;;;;;;24.10;48.00;;;;;;5124682;27;20348;-55
2022/09/01 11:48:01;;;;;;;;;;;24.30;47.50;;;;;;5118606;27;19924;-55
2022/09/01 11:50:41;;;;;;;;;;;24.60;46.40;;;;;;5145070;27;19911;-55
2022/09/01 11:53:24;;;;;;;;;;;24.90;45.80;;;;;;5096415;27;19954;-54
2022/09/01 11:56:15;;;;;;;;;;;24.70;44.80;;;;;;5097415;27;19920;-55
2022/09/01 11:58:55;;;;;;;;;;;24.70;45.40;;;;;;5093378;27;19931;-55
2022/09/01 12:01:36;;;;;;;;;;;24.80;45.90;;;;;;5119360;27;19916;-55
2022/09/01 12:04:22;;;;;;;;;;;24.90;44.20;;;;;;5120903;27;20085;-55
2022/09/01 12:07:04;;;;;;;;;;;24.60;43.70;;;;;;5112530;27;19915;-55
2022/09/01 12:09:45;;;;;;;;;;;25.00;44.70;;;;;;5094632;27;19973;-55
2022/09/01 12:12:30;;;;;;;;;;;25.40;44.90;;;;;;5119140;27;19912;-55
2022/09/01 12:15:16;;;;;;;;;;;25.80;44.20;;;;;;5116612;27;19919;-55
2022/09/01 12:18:08;;;;;;;;;;;25.80;43.70;;;;;;5119343;27;19924;-55
2022/09/01 12:20:49;;;;;;;;;;;25.60;42.00;;;;;;5097631;27;19950;-55
2022/09/01 12:23:31;;;;;;;;;;;25.30;42.70;;;;;;5097377;27;19916;-55
2022/09/01 12:26:12;;;;;;;;;;;25.00;41.20;;;;;;5077448;28;20326;-55
2022/09/01 12:28:53;;;;;;;;;;;24.70;42.60;;;;;;5124247;27;19915;-55
2022/09/01 12:31:33;;;;;;;;;;;24.60;42.80;;;;;;5116020;27;19915;-55
2022/09/01 12:34:25;;;;;;;;;;;24.40;42.90;;;;;;5117024;27;19916;-55
2022/09/01 12:37:07;;;;;;;;;;;24.20;43.10;;;;;;5124593;27;19923;-55
2022/09/01 12:39:49;;;;;;;;;;;24.20;42.10;;;;;;5100550;27;19924;-55
2022/09/01 12:42:31;;;;;;;;;;;24.40;40.00;;;;;;5126003;27;19912;-54
2022/09/01 12:45:11;;;;;;;;;;;24.30;39.30;;;;;;5100022;27;20328;-55
2022/09/01 12:47:51;;;;;;;;;;;24.10;41.00;;;;;;5121778;27;20377;-55
2022/09/01 12:50:46;;;;;;;;;;;24.10;40.00;;;;;;5075858;28;19935;-55
2022/09/01 12:53:32;;;;;;;;;;;24.10;41.10;;;;;;5114706;27;19920;-55
2022/09/01 12:56:20;;;;;;;;;;;23.90;40.50;;;;;;5117465;27;19916;-56
2022/09/01 12:59:09;;;;;;;;;;;24.00;38.80;;;;;;5120096;27;19916;-55
2022/09/01 13:01:48;;;;;;;;;;;24.50;39.60;;;;;;5093909;27;20432;-55
2022/09/01 13:04:32;;;;;;;;;;;24.70;39.30;;;;;;5102686;27;19920;-55
2022/09/01 13:07:13;;;;;;;;;;;24.80;40.10;;;;;;5083866;28;19916;-55
2022/09/01 13:09:53;;;;;;;;;;;25.00;39.70;;;;;;5114459;27;19928;-55
2022/09/01 13:12:33;;;;;;;;;;;25.40;40.70;;;;;;5111080;27;19926;-55
2022/09/01 13:15:12;;;;;;;;;;;25.10;38.50;;;;;;5106007;27;19912;-55
2022/09/01 13:17:52;;;;;;;;;;;25.30;41.30;;;;;;5119895;27;19923;-55
2022/09/01 13:20:32;;;;;;;;;;;25.50;39.50;;;;;;5102297;27;19934;-55
2022/09/01 13:23:12;;;;;;;;;;;25.30;39.70;;;;;;5117794;27;19917;-55
2022/09/01 13:25:52;;;;;;;;;;;25.10;40.40;;;;;;5120224;27;19953;-55
2022/09/01 13:28:32;;;;;;;;;;;25.00;39.30;;;;;;5121716;27;20054;-55
2022/09/01 13:31:13;;;;;;;;;;;24.90;39.70;;;;;;5090325;27;19930;-54
2022/09/01 13:33:53;;;;;;;;;;;24.70;40.50;;;;;;5112964;27;19951;-55
2022/09/01 13:36:33;;;;;;;;;;;24.70;41.90;;;;;;5121045;27;19916;-55
2022/09/01 13:39:12;;;;;;;;;;;24.70;41.30;;;;;;5088435;27;19920;-55
2022/09/01 13:41:52;;;;;;;;;;;24.40;41.20;;;;;;5123409;27;19924;-55
2022/09/01 13:44:32;;;;;;;;;;;24.20;40.90;;;;;;5081524;27;19920;-55
2022/09/01 13:47:12;;;;;;;;;;;24.20;42.80;;;;;;5099302;27;19950;-55
2022/09/01 13:49:52;;;;;;;;;;;24.20;42.80;;;;;;5123474;27;19924;-55
2022/09/01 13:52:32;;;;;;;;;;;23.90;42.00;;;;;;5099900;27;19982;-55
2022/09/01 13:55:13;;;;;;;;;;;23.70;42.90;;;;;;5124144;27;20286;-55
2022/09/01 13:57:53;;;;;;;;;;;23.50;43.50;;;;;;5106794;27;19946;-55
2022/09/01 14:00:34;;;;;;;;;;;23.30;43.50;;;;;;5125411;27;19912;-55
2022/09/01 14:03:17;;;;;;;;;;;23.30;43.20;;;;;;5135070;27;19916;-55
2022/09/01 14:05:57;;;;;;;;;;;23.10;41.90;;;;;;5123656;27;19919;-55
2022/09/01 14:08:37;;;;;;;;;;;23.00;42.40;;;;;;5109695;27;19916;-54
2022/09/01 14:11:18;;;;;;;;;;;22.80;42.80;;;;;;5115165;27;19929;-55
2022/09/01 14:13:58;;;;;;;;;;;22.70;43.90;;;;;;5126394;27;20373;-55
2022/09/01 14:16:38;;;;;;;;;;;22.70;44.10;;;;;;5126300;27;19912;-57
2022/09/01 14:19:18;;;;;;;;;;;22.70;43.40;;;;;;5136669;27;19920;-55
2022/09/01 14:21:58;;;;;;;;;;;22.50;44.20;;;;;;5123996;27;19916;-55
2022/09/01 14:24:38;;;;;;;;;;;22.40;44.50;;;;;;5120677;27;19916;-55
2022/09/01 14:27:17;;;;;;;;;;;22.30;44.60;;;;;;5097840;27;20262;-54
2022/09/01 14:29:57;;;;;;;;;;;22.20;44.50;;;;;;5114743;27;19912;-55
2022/09/01 14:32:38;;;;;;;;;;;22.10;44.70;;;;;;5099507;27;19930;-56
2022/09/01 14:35:19;;;;;;;;;;;22.20;46.80;;;;;;5097957;27;20498;-55
2022/09/01 14:38:04;;;;;;;;;;;22.20;45.00;;;;;;5125290;27;19920;-53
2022/09/01 14:40:46;;;;;;;;;;;22.40;45.00;;;;;;5104967;27;19961;-56
2022/09/01 14:43:26;;;;;;;;;;;22.40;43.90;;;;;;5115717;27;19916;-55
2022/09/01 14:46:08;;;;;;;;;;;22.40;45.00;;;;;;5078143;28;19924;-55
2022/09/01 14:48:47;;;;;;;;;;;22.50;44.80;;;;;;5125463;27;20262;-54
2022/09/01 14:51:28;;;;;;;;;;;22.50;44.80;;;;;;5102310;27;19926;-54
2022/09/01 14:54:08;;;;;;;;;;;22.50;44.00;;;;;;5121098;27;19922;-55
2022/09/01 14:56:48;;;;;;;;;;;22.60;43.20;;;;;;5104380;27;20459;-55
2022/09/01 14:59:28;;;;;;;;;;;22.60;42.50;;;;;;5095727;27;19930;-55
2022/09/01 15:02:08;;;;;;;;;;;22.60;42.70;;;;;;5123545;27;19922;-55
2022/09/01 15:04:48;;;;;;;;;;;22.70;43.30;;;;;;5125786;27;19919;-55
2022/09/01 15:07:28;;;;;;;;;;;22.60;42.00;;;;;;5123095;27;19919;-54
2022/09/01 15:10:09;;;;;;;;;;;22.60;43.10;;;;;;5122236;27;19923;-55
2022/09/01 15:12:49;;;;;;;;;;;22.50;50.70;;;;;;5107123;27;19916;-55
2022/09/01 15:15:29;;;;;;;;;;;22.50;47.30;;;;;;5097211;27;19950;-55
2022/09/01 15:18:10;;;;;;;;;;;22.30;44.40;;;;;;5106228;27;20293;-54
2022/09/01 15:20:52;;;;;;;;;;;22.20;45.70;;;;;;5124210;27;19928;-55
2022/09/01 15:23:33;;;;;;;;;;;22.10;44.40;;;;;;5108158;27;20374;-55
2022/09/01 15:26:15;;;;;;;;;;;21.70;46.10;;;;;;5107572;27;20147;-55
2022/09/01 15:28:55;;;;;;;;;;;21.50;45.90;;;;;;5106526;27;19920;-55
2022/09/01 15:31:36;;;;;;;;;;;21.30;46.50;;;;;;5102591;27;19912;-55
2022/09/01 15:34:17;;;;;;;;;;;21.10;46.60;;;;;;5104037;27;19949;-55
2022/09/01 15:36:57;;;;;;;;;;;21.00;47.30;;;;;;5109251;27;20308;-55
2022/09/01 15:39:38;;;;;;;;;;;20.90;46.70;;;;;;5125266;27;20357;-55
2022/09/01 15:42:19;;;;;;;;;;;20.90;46.50;;;;;;5126354;27;19915;-55
2022/09/01 15:44:58;;;;;;;;;;;21.00;45.30;;;;;;5105433;27;20304;-55
2022/09/01 15:47:38;;;;;;;;;;;21.10;45.40;;;;;;5126419;27;19916;-55
2022/09/01 15:50:21;;;;;;;;;;;21.10;44.60;;;;;;5085874;27;19954;-55
2022/09/01 15:53:03;;;;;;;;;;;21.10;43.90;;;;;;5124785;27;19923;-55